sensor_id;sensor_type;location;lat;lon;timestamp;P1;durP1;ratioP1;P2;durP2;ratioP2
30287;SDS011;17103;48.316;11.558;2023-06-19T00:01:55;8.02;;;5.35;;
30287;SDS011;17103;48.316;11.558;2023-06-19T00:04:21;7.07;;;5.95;;
30287;SDS011;17103;48.316;11.558;2023-06-19T00:06:46;6.57;;;5.90;;
30287;SDS011;17103;48.316;11.558;2023-06-19T00:09:13;7.60;;;5.57;;
30287;SDS011;17103;48.316;11.558;2023-06-19T00:11:39;7.00;;;5.57;;
30287;SDS011;17103;48.316;11.558;2023-06-19T00:14:05;6.60;;;5.88;;
30287;SDS011;17103;48.316;11.558;2023-06-19T00:16:31;6.97;;;6.28;;
30287;SDS011;17103;48.316;11.558;2023-06-19T00:18:59;6.47;;;5.82;;
30287;SDS011;17103;48.316;11.558;2023-06-19T00:21:25;7.07;;;6.38;;
30287;SDS011;17103;48.316;11.558;2023-06-19T00:23:51;6.68;;;5.75;;
30287;SDS011;17103;48.316;11.558;2023-06-19T00:26:37;7.28;;;5.88;;
30287;SDS011;17103;48.316;11.558;2023-06-19T00:29:12;6.55;;;5.80;;
30287;SDS011;17103;48.316;11.558;2023-06-19T00:31:40;6.53;;;5.38;;
30287;SDS011;17103;48.316;11.558;2023-06-19T00:37:17;8.70;;;5.63;;
30287;SDS011;17103;48.316;11.558;2023-06-19T00:39:59;6.70;;;5.97;;
30287;SDS011;17103;48.316;11.558;2023-06-19T00:42:46;10.07;;;5.47;;
30287;SDS011;17103;48.316;11.558;2023-06-19T00:45:11;6.45;;;5.40;;
30287;SDS011;17103;48.316;11.558;2023-06-19T00:47:49;6.55;;;5.85;;
30287;SDS011;17103;48.316;11.558;2023-06-19T00:50:32;7.45;;;5.70;;
30287;SDS011;17103;48.316;11.558;2023-06-19T00:56:10;6.30;;;5.55;;
30287;SDS011;17103;48.316;11.558;2023-06-19T01:01:56;6.78;;;6.07;;
30287;SDS011;17103;48.316;11.558;2023-06-19T01:05:10;6.80;;;5.43;;
30287;SDS011;17103;48.316;11.558;2023-06-19T01:10:21;8.07;;;5.75;;
30287;SDS011;17103;48.316;11.558;2023-06-19T01:12:56;5.68;;;5.18;;
30287;SDS011;17103;48.316;11.558;2023-06-19T01:15:31;7.03;;;6.32;;
30287;SDS011;17103;48.316;11.558;2023-06-19T01:17:57;6.43;;;5.30;;
30287;SDS011;17103;48.316;11.558;2023-06-19T01:20:25;7.80;;;6.32;;
30287;SDS011;17103;48.316;11.558;2023-06-19T01:22:51;6.68;;;6.00;;
30287;SDS011;17103;48.316;11.558;2023-06-19T01:25:16;7.15;;;5.82;;
30287;SDS011;17103;48.316;11.558;2023-06-19T01:27:42;6.45;;;5.55;;
30287;SDS011;17103;48.316;11.558;2023-06-19T01:30:08;7.68;;;5.97;;
30287;SDS011;17103;48.316;11.558;2023-06-19T01:32:40;7.57;;;6.18;;
30287;SDS011;17103;48.316;11.558;2023-06-19T01:35:23;7.57;;;6.28;;
30287;SDS011;17103;48.316;11.558;2023-06-19T01:37:53;7.75;;;6.65;;
30287;SDS011;17103;48.316;11.558;2023-06-19T01:40:19;6.90;;;6.20;;
30287;SDS011;17103;48.316;11.558;2023-06-19T01:42:51;8.40;;;6.90;;
30287;SDS011;17103;48.316;11.558;2023-06-19T01:45:18;6.70;;;6.07;;
30287;SDS011;17103;48.316;11.558;2023-06-19T01:47:44;6.93;;;6.25;;
30287;SDS011;17103;48.316;11.558;2023-06-19T01:50:10;6.35;;;5.50;;
30287;SDS011;17103;48.316;11.558;2023-06-19T01:52:38;7.55;;;5.68;;
30287;SDS011;17103;48.316;11.558;2023-06-19T01:55:04;9.52;;;6.90;;
30287;SDS011;17103;48.316;11.558;2023-06-19T01:57:30;8.55;;;6.18;;
30287;SDS011;17103;48.316;11.558;2023-06-19T01:59:56;7.63;;;6.75;;
30287;SDS011;17103;48.316;11.558;2023-06-19T02:02:22;6.97;;;6.28;;
30287;SDS011;17103;48.316;11.558;2023-06-19T02:04:48;8.77;;;6.82;;
30287;SDS011;17103;48.316;11.558;2023-06-19T02:07:13;6.95;;;5.95;;
30287;SDS011;17103;48.316;11.558;2023-06-19T02:09:40;7.97;;;6.63;;
30287;SDS011;17103;48.316;11.558;2023-06-19T02:12:06;10.85;;;7.03;;
30287;SDS011;17103;48.316;11.558;2023-06-19T02:14:33;6.72;;;6.10;;
30287;SDS011;17103;48.316;11.558;2023-06-19T02:16:59;7.30;;;6.60;;
30287;SDS011;17103;48.316;11.558;2023-06-19T02:19:24;7.18;;;6.47;;
30287;SDS011;17103;48.316;11.558;2023-06-19T02:21:50;7.10;;;6.40;;
30287;SDS011;17103;48.316;11.558;2023-06-19T02:24:15;7.40;;;6.70;;
30287;SDS011;17103;48.316;11.558;2023-06-19T02:26:41;7.45;;;6.65;;
30287;SDS011;17103;48.316;11.558;2023-06-19T02:29:09;7.05;;;6.35;;
30287;SDS011;17103;48.316;11.558;2023-06-19T02:31:35;8.18;;;6.97;;
30287;SDS011;17103;48.316;11.558;2023-06-19T02:34:00;8.23;;;6.57;;
30287;SDS011;17103;48.316;11.558;2023-06-19T02:36:26;7.10;;;6.40;;
30287;SDS011;17103;48.316;11.558;2023-06-19T02:38:52;7.45;;;6.72;;
30287;SDS011;17103;48.316;11.558;2023-06-19T02:41:17;6.60;;;5.80;;
30287;SDS011;17103;48.316;11.558;2023-06-19T02:43:44;11.75;;;7.03;;
30287;SDS011;17103;48.316;11.558;2023-06-19T02:46:11;7.60;;;6.80;;
30287;SDS011;17103;48.316;11.558;2023-06-19T02:48:37;8.10;;;7.25;;
30287;SDS011;17103;48.316;11.558;2023-06-19T02:51:03;7.60;;;6.85;;
30287;SDS011;17103;48.316;11.558;2023-06-19T02:53:28;7.97;;;7.18;;
30287;SDS011;17103;48.316;11.558;2023-06-19T02:55:54;7.05;;;6.40;;
30287;SDS011;17103;48.316;11.558;2023-06-19T02:58:20;8.18;;;7.38;;
30287;SDS011;17103;48.316;11.558;2023-06-19T03:00:45;8.55;;;7.63;;
30287;SDS011;17103;48.316;11.558;2023-06-19T03:03:11;9.20;;;8.00;;
30287;SDS011;17103;48.316;11.558;2023-06-19T03:05:37;7.45;;;6.72;;
30287;SDS011;17103;48.316;11.558;2023-06-19T03:08:03;10.43;;;6.97;;
30287;SDS011;17103;48.316;11.558;2023-06-19T03:10:29;9.15;;;7.30;;
30287;SDS011;17103;48.316;11.558;2023-06-19T03:12:55;9.30;;;7.57;;
30287;SDS011;17103;48.316;11.558;2023-06-19T03:15:23;7.97;;;7.13;;
30287;SDS011;17103;48.316;11.558;2023-06-19T03:17:49;9.30;;;7.60;;
30287;SDS011;17103;48.316;11.558;2023-06-19T03:20:15;8.73;;;7.60;;
30287;SDS011;17103;48.316;11.558;2023-06-19T03:22:40;8.93;;;8.02;;
30287;SDS011;17103;48.316;11.558;2023-06-19T03:25:07;8.38;;;6.97;;
30287;SDS011;17103;48.316;11.558;2023-06-19T03:27:33;9.65;;;7.75;;
30287;SDS011;17103;48.316;11.558;2023-06-19T03:30:00;8.70;;;7.28;;
30287;SDS011;17103;48.316;11.558;2023-06-19T03:32:26;8.15;;;7.18;;
30287;SDS011;17103;48.316;11.558;2023-06-19T03:34:52;8.27;;;6.93;;
30287;SDS011;17103;48.316;11.558;2023-06-19T03:37:18;7.47;;;6.65;;
30287;SDS011;17103;48.316;11.558;2023-06-19T03:39:44;8.88;;;7.32;;
30287;SDS011;17103;48.316;11.558;2023-06-19T03:42:09;8.15;;;7.28;;
30287;SDS011;17103;48.316;11.558;2023-06-19T03:44:35;7.22;;;6.53;;
30287;SDS011;17103;48.316;11.558;2023-06-19T03:47:01;8.60;;;7.70;;
30287;SDS011;17103;48.316;11.558;2023-06-19T03:49:26;8.35;;;7.53;;
30287;SDS011;17103;48.316;11.558;2023-06-19T03:51:52;9.00;;;7.72;;
30287;SDS011;17103;48.316;11.558;2023-06-19T03:54:19;8.77;;;7.88;;
30287;SDS011;17103;48.316;11.558;2023-06-19T03:56:45;9.00;;;7.97;;
30287;SDS011;17103;48.316;11.558;2023-06-19T03:59:11;8.68;;;7.78;;
30287;SDS011;17103;48.316;11.558;2023-06-19T04:01:36;8.73;;;7.82;;
30287;SDS011;17103;48.316;11.558;2023-06-19T04:04:02;10.35;;;8.18;;
30287;SDS011;17103;48.316;11.558;2023-06-19T04:06:28;7.50;;;6.80;;
30287;SDS011;17103;48.316;11.558;2023-06-19T04:08:53;9.68;;;7.15;;
30287;SDS011;17103;48.316;11.558;2023-06-19T04:11:19;10.05;;;7.82;;
30287;SDS011;17103;48.316;11.558;2023-06-19T04:13:46;8.57;;;7.60;;
30287;SDS011;17103;48.316;11.558;2023-06-19T04:16:12;8.88;;;6.95;;
30287;SDS011;17103;48.316;11.558;2023-06-19T04:18:38;8.98;;;7.78;;
30287;SDS011;17103;48.316;11.558;2023-06-19T04:21:03;8.52;;;7.40;;
30287;SDS011;17103;48.316;11.558;2023-06-19T04:23:29;9.70;;;7.57;;
30287;SDS011;17103;48.316;11.558;2023-06-19T04:25:55;8.02;;;7.10;;
30287;SDS011;17103;48.316;11.558;2023-06-19T04:28:20;8.32;;;7.53;;
30287;SDS011;17103;48.316;11.558;2023-06-19T04:30:46;9.45;;;7.15;;
30287;SDS011;17103;48.316;11.558;2023-06-19T04:33:12;9.73;;;7.35;;
30287;SDS011;17103;48.316;11.558;2023-06-19T04:35:37;9.02;;;8.13;;
30287;SDS011;17103;48.316;11.558;2023-06-19T04:38:05;11.60;;;8.15;;
30287;SDS011;17103;48.316;11.558;2023-06-19T04:40:32;9.02;;;7.90;;
30287;SDS011;17103;48.316;11.558;2023-06-19T04:42:58;8.90;;;7.88;;
30287;SDS011;17103;48.316;11.558;2023-06-19T04:45:24;11.93;;;8.05;;
30287;SDS011;17103;48.316;11.558;2023-06-19T04:47:50;9.10;;;8.20;;
30287;SDS011;17103;48.316;11.558;2023-06-19T04:50:15;10.13;;;8.07;;
30287;SDS011;17103;48.316;11.558;2023-06-19T04:52:41;10.05;;;8.73;;
30287;SDS011;17103;48.316;11.558;2023-06-19T04:55:08;10.25;;;7.82;;
30287;SDS011;17103;48.316;11.558;2023-06-19T04:57:35;11.88;;;8.93;;
30287;SDS011;17103;48.316;11.558;2023-06-19T05:00:03;9.77;;;8.05;;
30287;SDS011;17103;48.316;11.558;2023-06-19T05:02:31;9.45;;;8.48;;
30287;SDS011;17103;48.316;11.558;2023-06-19T05:04:57;12.65;;;8.23;;
30287;SDS011;17103;48.316;11.558;2023-06-19T05:07:27;9.38;;;7.93;;
30287;SDS011;17103;48.316;11.558;2023-06-19T05:09:53;11.48;;;8.52;;
30287;SDS011;17103;48.316;11.558;2023-06-19T05:12:18;10.38;;;8.25;;
30287;SDS011;17103;48.316;11.558;2023-06-19T05:14:44;9.82;;;8.35;;
30287;SDS011;17103;48.316;11.558;2023-06-19T05:17:09;9.88;;;8.88;;
30287;SDS011;17103;48.316;11.558;2023-06-19T05:19:35;9.85;;;8.57;;
30287;SDS011;17103;48.316;11.558;2023-06-19T05:22:01;10.52;;;8.57;;
30287;SDS011;17103;48.316;11.558;2023-06-19T05:24:27;9.40;;;8.48;;
30287;SDS011;17103;48.316;11.558;2023-06-19T05:26:52;10.80;;;9.07;;
30287;SDS011;17103;48.316;11.558;2023-06-19T05:29:18;9.48;;;8.18;;
30287;SDS011;17103;48.316;11.558;2023-06-19T05:31:44;8.27;;;7.47;;
30287;SDS011;17103;48.316;11.558;2023-06-19T05:34:09;9.90;;;8.77;;
30287;SDS011;17103;48.316;11.558;2023-06-19T05:36:35;9.90;;;8.88;;
30287;SDS011;17103;48.316;11.558;2023-06-19T05:39:01;10.75;;;8.52;;
30287;SDS011;17103;48.316;11.558;2023-06-19T05:41:26;13.57;;;8.18;;
30287;SDS011;17103;48.316;11.558;2023-06-19T05:43:52;12.02;;;8.82;;
30287;SDS011;17103;48.316;11.558;2023-06-19T05:46:17;10.48;;;8.75;;
30287;SDS011;17103;48.316;11.558;2023-06-19T05:48:43;10.18;;;9.18;;
30287;SDS011;17103;48.316;11.558;2023-06-19T05:51:09;8.45;;;7.60;;
30287;SDS011;17103;48.316;11.558;2023-06-19T05:53:34;9.70;;;8.68;;
30287;SDS011;17103;48.316;11.558;2023-06-19T05:56:00;10.20;;;8.15;;
30287;SDS011;17103;48.316;11.558;2023-06-19T05:58:26;9.43;;;8.45;;
30287;SDS011;17103;48.316;11.558;2023-06-19T06:00:51;8.30;;;7.50;;
30287;SDS011;17103;48.316;11.558;2023-06-19T06:03:22;10.65;;;8.88;;
30287;SDS011;17103;48.316;11.558;2023-06-19T06:05:49;10.82;;;8.50;;
30287;SDS011;17103;48.316;11.558;2023-06-19T06:08:15;10.57;;;8.27;;
30287;SDS011;17103;48.316;11.558;2023-06-19T06:10:42;11.00;;;8.18;;
30287;SDS011;17103;48.316;11.558;2023-06-19T06:13:08;10.98;;;8.13;;
30287;SDS011;17103;48.316;11.558;2023-06-19T06:15:33;9.45;;;7.38;;
30287;SDS011;17103;48.316;11.558;2023-06-19T06:17:59;14.23;;;8.73;;
30287;SDS011;17103;48.316;11.558;2023-06-19T06:20:25;11.30;;;8.35;;
30287;SDS011;17103;48.316;11.558;2023-06-19T06:22:52;8.75;;;7.72;;
30287;SDS011;17103;48.316;11.558;2023-06-19T06:25:18;9.85;;;8.02;;
30287;SDS011;17103;48.316;11.558;2023-06-19T06:27:44;10.57;;;7.60;;
30287;SDS011;17103;48.316;11.558;2023-06-19T06:30:10;8.02;;;7.20;;
30287;SDS011;17103;48.316;11.558;2023-06-19T06:32:37;9.52;;;7.75;;
30287;SDS011;17103;48.316;11.558;2023-06-19T06:35:03;8.70;;;7.80;;
30287;SDS011;17103;48.316;11.558;2023-06-19T06:37:29;9.63;;;8.70;;
30287;SDS011;17103;48.316;11.558;2023-06-19T06:39:54;9.20;;;7.88;;
30287;SDS011;17103;48.316;11.558;2023-06-19T06:42:20;11.13;;;8.27;;
30287;SDS011;17103;48.316;11.558;2023-06-19T06:44:47;9.60;;;8.07;;
30287;SDS011;17103;48.316;11.558;2023-06-19T06:47:13;9.45;;;8.45;;
30287;SDS011;17103;48.316;11.558;2023-06-19T06:49:38;10.57;;;8.52;;
30287;SDS011;17103;48.316;11.558;2023-06-19T06:52:04;9.02;;;8.13;;
30287;SDS011;17103;48.316;11.558;2023-06-19T06:54:31;8.57;;;7.70;;
30287;SDS011;17103;48.316;11.558;2023-06-19T06:56:56;8.00;;;7.18;;
30287;SDS011;17103;48.316;11.558;2023-06-19T06:59:25;9.27;;;7.72;;
30287;SDS011;17103;48.316;11.558;2023-06-19T07:01:52;9.23;;;8.30;;
30287;SDS011;17103;48.316;11.558;2023-06-19T07:04:19;9.85;;;8.05;;
30287;SDS011;17103;48.316;11.558;2023-06-19T07:06:45;9.35;;;7.55;;
30287;SDS011;17103;48.316;11.558;2023-06-19T07:09:11;9.07;;;8.18;;
30287;SDS011;17103;48.316;11.558;2023-06-19T07:11:36;10.18;;;8.48;;
30287;SDS011;17103;48.316;11.558;2023-06-19T07:14:02;10.55;;;8.43;;
30287;SDS011;17103;48.316;11.558;2023-06-19T07:16:28;12.98;;;7.70;;
30287;SDS011;17103;48.316;11.558;2023-06-19T07:18:54;9.15;;;8.25;;
30287;SDS011;17103;48.316;11.558;2023-06-19T07:21:19;10.82;;;8.98;;
30287;SDS011;17103;48.316;11.558;2023-06-19T07:23:45;11.43;;;8.00;;
30287;SDS011;17103;48.316;11.558;2023-06-19T07:26:13;10.07;;;8.00;;
30287;SDS011;17103;48.316;11.558;2023-06-19T07:28:39;8.63;;;7.82;;
30287;SDS011;17103;48.316;11.558;2023-06-19T07:31:05;7.55;;;6.85;;
30287;SDS011;17103;48.316;11.558;2023-06-19T07:33:30;9.85;;;8.02;;
30287;SDS011;17103;48.316;11.558;2023-06-19T07:35:56;7.82;;;6.72;;
30287;SDS011;17103;48.316;11.558;2023-06-19T07:38:22;7.40;;;6.68;;
30287;SDS011;17103;48.316;11.558;2023-06-19T07:40:48;7.97;;;7.13;;
30287;SDS011;17103;48.316;11.558;2023-06-19T07:43:14;8.90;;;8.07;;
30287;SDS011;17103;48.316;11.558;2023-06-19T07:45:40;9.45;;;7.43;;
30287;SDS011;17103;48.316;11.558;2023-06-19T07:48:06;10.20;;;7.05;;
30287;SDS011;17103;48.316;11.558;2023-06-19T07:50:31;8.55;;;6.35;;
30287;SDS011;17103;48.316;11.558;2023-06-19T07:52:57;8.65;;;5.80;;
30287;SDS011;17103;48.316;11.558;2023-06-19T07:55:23;7.53;;;6.72;;
30287;SDS011;17103;48.316;11.558;2023-06-19T07:57:49;7.18;;;6.30;;
30287;SDS011;17103;48.316;11.558;2023-06-19T08:00:15;8.30;;;6.00;;
30287;SDS011;17103;48.316;11.558;2023-06-19T08:02:41;10.95;;;6.35;;
30287;SDS011;17103;48.316;11.558;2023-06-19T08:05:08;9.30;;;5.43;;
30287;SDS011;17103;48.316;11.558;2023-06-19T08:07:34;5.65;;;4.38;;
30287;SDS011;17103;48.316;11.558;2023-06-19T08:10:00;6.25;;;4.47;;
30287;SDS011;17103;48.316;11.558;2023-06-19T08:16:10;5.53;;;5.07;;
30287;SDS011;17103;48.316;11.558;2023-06-19T08:18:35;5.07;;;4.60;;
30287;SDS011;17103;48.316;11.558;2023-06-19T08:21:01;7.97;;;4.80;;
30287;SDS011;17103;48.316;11.558;2023-06-19T08:23:27;5.15;;;4.70;;
30287;SDS011;17103;48.316;11.558;2023-06-19T08:25:53;9.43;;;4.97;;
30287;SDS011;17103;48.316;11.558;2023-06-19T08:28:18;4.75;;;4.35;;
30287;SDS011;17103;48.316;11.558;2023-06-19T08:30:44;7.25;;;5.20;;
30287;SDS011;17103;48.316;11.558;2023-06-19T08:33:11;5.38;;;4.75;;
30287;SDS011;17103;48.316;11.558;2023-06-19T08:35:38;4.38;;;3.97;;
30287;SDS011;17103;48.316;11.558;2023-06-19T08:38:03;5.85;;;3.97;;
30287;SDS011;17103;48.316;11.558;2023-06-19T08:40:29;4.35;;;3.70;;
30287;SDS011;17103;48.316;11.558;2023-06-19T08:42:55;5.53;;;3.95;;
30287;SDS011;17103;48.316;11.558;2023-06-19T08:45:21;9.50;;;4.03;;
30287;SDS011;17103;48.316;11.558;2023-06-19T08:47:48;4.70;;;3.33;;
30287;SDS011;17103;48.316;11.558;2023-06-19T08:50:15;4.60;;;3.38;;
30287;SDS011;17103;48.316;11.558;2023-06-19T08:52:41;4.68;;;3.00;;
30287;SDS011;17103;48.316;11.558;2023-06-19T08:55:07;4.85;;;3.08;;
30287;SDS011;17103;48.316;11.558;2023-06-19T08:57:42;7.10;;;3.38;;
30287;SDS011;17103;48.316;11.558;2023-06-19T09:00:08;5.82;;;2.95;;
30287;SDS011;17103;48.316;11.558;2023-06-19T09:02:44;4.72;;;3.20;;
30287;SDS011;17103;48.316;11.558;2023-06-19T09:05:11;3.88;;;3.08;;
30287;SDS011;17103;48.316;11.558;2023-06-19T09:07:38;7.50;;;3.75;;
30287;SDS011;17103;48.316;11.558;2023-06-19T09:12:41;3.88;;;2.92;;
30287;SDS011;17103;48.316;11.558;2023-06-19T09:15:12;4.47;;;3.90;;
30287;SDS011;17103;48.316;11.558;2023-06-19T09:17:39;3.78;;;3.33;;
30287;SDS011;17103;48.316;11.558;2023-06-19T09:20:06;3.55;;;3.25;;
30287;SDS011;17103;48.316;11.558;2023-06-19T09:22:32;4.15;;;3.75;;
30287;SDS011;17103;48.316;11.558;2023-06-19T09:25:01;4.57;;;4.10;;
30287;SDS011;17103;48.316;11.558;2023-06-19T09:27:32;4.00;;;3.60;;
30287;SDS011;17103;48.316;11.558;2023-06-19T09:29:58;5.90;;;3.53;;
30287;SDS011;17103;48.316;11.558;2023-06-19T09:32:26;4.75;;;3.83;;
30287;SDS011;17103;48.316;11.558;2023-06-19T09:34:54;6.07;;;4.10;;
30287;SDS011;17103;48.316;11.558;2023-06-19T09:37:29;6.45;;;3.88;;
30287;SDS011;17103;48.316;11.558;2023-06-19T09:39:57;4.15;;;3.85;;
30287;SDS011;17103;48.316;11.558;2023-06-19T09:42:32;3.70;;;3.30;;
30287;SDS011;17103;48.316;11.558;2023-06-19T09:44:59;4.32;;;3.53;;
30287;SDS011;17103;48.316;11.558;2023-06-19T09:47:31;4.43;;;4.03;;
30287;SDS011;17103;48.316;11.558;2023-06-19T09:50:04;7.28;;;4.13;;
30287;SDS011;17103;48.316;11.558;2023-06-19T09:52:31;6.68;;;4.40;;
30287;SDS011;17103;48.316;11.558;2023-06-19T09:54:58;4.38;;;3.67;;
30287;SDS011;17103;48.316;11.558;2023-06-19T09:57:32;3.65;;;3.28;;
30287;SDS011;17103;48.316;11.558;2023-06-19T09:59:59;3.53;;;3.00;;
30287;SDS011;17103;48.316;11.558;2023-06-19T10:02:34;4.07;;;3.47;;
30287;SDS011;17103;48.316;11.558;2023-06-19T10:05:00;2.78;;;2.47;;
30287;SDS011;17103;48.316;11.558;2023-06-19T10:07:32;2.88;;;2.45;;
30287;SDS011;17103;48.316;11.558;2023-06-19T10:10:03;2.72;;;2.50;;
30287;SDS011;17103;48.316;11.558;2023-06-19T10:15:11;3.45;;;2.47;;
30287;SDS011;17103;48.316;11.558;2023-06-19T10:17:44;3.17;;;2.83;;
30287;SDS011;17103;48.316;11.558;2023-06-19T10:20:28;3.20;;;2.90;;
30287;SDS011;17103;48.316;11.558;2023-06-19T10:25:29;3.08;;;2.78;;
30287;SDS011;17103;48.316;11.558;2023-06-19T10:27:57;3.83;;;3.10;;
30287;SDS011;17103;48.316;11.558;2023-06-19T10:30:23;3.70;;;3.28;;
30287;SDS011;17103;48.316;11.558;2023-06-19T10:32:49;3.63;;;2.95;;
30287;SDS011;17103;48.316;11.558;2023-06-19T10:35:16;3.42;;;2.90;;
30287;SDS011;17103;48.316;11.558;2023-06-19T10:37:43;3.13;;;2.85;;
30287;SDS011;17103;48.316;11.558;2023-06-19T10:40:11;5.00;;;2.83;;
30287;SDS011;17103;48.316;11.558;2023-06-19T10:42:38;3.63;;;2.72;;
30287;SDS011;17103;48.316;11.558;2023-06-19T10:45:08;3.85;;;2.92;;
30287;SDS011;17103;48.316;11.558;2023-06-19T10:47:39;3.45;;;2.83;;
30287;SDS011;17103;48.316;11.558;2023-06-19T10:50:14;2.92;;;2.63;;
30287;SDS011;17103;48.316;11.558;2023-06-19T10:52:41;2.83;;;2.50;;
30287;SDS011;17103;48.316;11.558;2023-06-19T10:55:08;4.65;;;3.65;;
30287;SDS011;17103;48.316;11.558;2023-06-19T10:57:35;2.90;;;2.60;;
30287;SDS011;17103;48.316;11.558;2023-06-19T11:00:07;3.10;;;2.80;;
30287;SDS011;17103;48.316;11.558;2023-06-19T11:02:37;4.68;;;3.10;;
30287;SDS011;17103;48.316;11.558;2023-06-19T11:05:05;3.47;;;3.08;;
30287;SDS011;17103;48.316;11.558;2023-06-19T11:07:31;3.35;;;2.97;;
30287;SDS011;17103;48.316;11.558;2023-06-19T11:09:57;3.72;;;3.42;;
30287;SDS011;17103;48.316;11.558;2023-06-19T11:12:23;3.25;;;2.95;;
30287;SDS011;17103;48.316;11.558;2023-06-19T11:14:49;3.38;;;3.08;;
30287;SDS011;17103;48.316;11.558;2023-06-19T11:17:15;5.15;;;3.38;;
30287;SDS011;17103;48.316;11.558;2023-06-19T11:19:45;3.22;;;2.78;;
30287;SDS011;17103;48.316;11.558;2023-06-19T11:22:11;3.85;;;2.83;;
30287;SDS011;17103;48.316;11.558;2023-06-19T11:24:37;3.20;;;2.90;;
30287;SDS011;17103;48.316;11.558;2023-06-19T11:27:20;4.20;;;2.63;;
30287;SDS011;17103;48.316;11.558;2023-06-19T11:29:58;4.03;;;3.15;;
30287;SDS011;17103;48.316;11.558;2023-06-19T11:32:34;3.03;;;2.72;;
30287;SDS011;17103;48.316;11.558;2023-06-19T11:35:06;2.67;;;2.47;;
30287;SDS011;17103;48.316;11.558;2023-06-19T11:37:34;3.38;;;2.50;;
30287;SDS011;17103;48.316;11.558;2023-06-19T11:40:00;2.50;;;2.30;;
30287;SDS011;17103;48.316;11.558;2023-06-19T11:42:28;2.47;;;2.10;;
30287;SDS011;17103;48.316;11.558;2023-06-19T11:47:20;3.05;;;2.15;;
30287;SDS011;17103;48.316;11.558;2023-06-19T11:49:50;3.45;;;2.22;;
30287;SDS011;17103;48.316;11.558;2023-06-19T11:52:16;2.58;;;2.38;;
30287;SDS011;17103;48.316;11.558;2023-06-19T11:54:42;2.78;;;2.05;;
30287;SDS011;17103;48.316;11.558;2023-06-19T11:57:11;2.85;;;2.50;;
30287;SDS011;17103;48.316;11.558;2023-06-19T11:59:40;3.25;;;2.95;;
30287;SDS011;17103;48.316;11.558;2023-06-19T12:02:07;3.10;;;2.90;;
30287;SDS011;17103;48.316;11.558;2023-06-19T12:04:33;3.78;;;3.47;;
30287;SDS011;17103;48.316;11.558;2023-06-19T12:07:00;3.45;;;2.67;;
30287;SDS011;17103;48.316;11.558;2023-06-19T12:09:26;3.13;;;2.33;;
30287;SDS011;17103;48.316;11.558;2023-06-19T12:11:52;4.38;;;2.47;;
30287;SDS011;17103;48.316;11.558;2023-06-19T12:14:18;3.10;;;2.80;;
30287;SDS011;17103;48.316;11.558;2023-06-19T12:16:47;2.80;;;2.58;;
30287;SDS011;17103;48.316;11.558;2023-06-19T12:19:13;2.38;;;2.17;;
30287;SDS011;17103;48.316;11.558;2023-06-19T12:21:39;3.85;;;2.10;;
30287;SDS011;17103;48.316;11.558;2023-06-19T12:24:05;2.40;;;2.20;;
30287;SDS011;17103;48.316;11.558;2023-06-19T12:26:32;2.50;;;2.30;;
30287;SDS011;17103;48.316;11.558;2023-06-19T12:29:02;2.63;;;2.13;;
30287;SDS011;17103;48.316;11.558;2023-06-19T12:31:28;2.58;;;2.38;;
30287;SDS011;17103;48.316;11.558;2023-06-19T12:33:54;3.35;;;2.75;;
30287;SDS011;17103;48.316;11.558;2023-06-19T12:36:20;2.58;;;2.38;;
30287;SDS011;17103;48.316;11.558;2023-06-19T12:38:46;2.40;;;2.20;;
30287;SDS011;17103;48.316;11.558;2023-06-19T12:41:13;2.58;;;2.38;;
30287;SDS011;17103;48.316;11.558;2023-06-19T12:43:40;2.58;;;2.38;;
30287;SDS011;17103;48.316;11.558;2023-06-19T12:46:05;2.97;;;2.65;;
30287;SDS011;17103;48.316;11.558;2023-06-19T12:48:31;3.33;;;2.40;;
30287;SDS011;17103;48.316;11.558;2023-06-19T12:50:57;3.80;;;2.50;;
30287;SDS011;17103;48.316;11.558;2023-06-19T12:53:24;2.42;;;2.22;;
30287;SDS011;17103;48.316;11.558;2023-06-19T12:55:54;2.60;;;2.40;;
30287;SDS011;17103;48.316;11.558;2023-06-19T12:58:21;2.33;;;2.13;;
30287;SDS011;17103;48.316;11.558;2023-06-19T13:00:47;2.53;;;2.33;;
30287;SDS011;17103;48.316;11.558;2023-06-19T13:03:12;2.35;;;2.15;;
30287;SDS011;17103;48.316;11.558;2023-06-19T13:05:38;3.55;;;2.90;;
30287;SDS011;17103;48.316;11.558;2023-06-19T13:08:04;3.17;;;2.90;;
30287;SDS011;17103;48.316;11.558;2023-06-19T13:10:30;3.50;;;2.63;;
30287;SDS011;17103;48.316;11.558;2023-06-19T13:12:55;2.60;;;2.40;;
30287;SDS011;17103;48.316;11.558;2023-06-19T13:15:23;2.63;;;2.42;;
30287;SDS011;17103;48.316;11.558;2023-06-19T13:17:49;2.88;;;2.58;;
30287;SDS011;17103;48.316;11.558;2023-06-19T13:20:15;2.72;;;2.53;;
30287;SDS011;17103;48.316;11.558;2023-06-19T13:22:41;2.88;;;2.55;;
30287;SDS011;17103;48.316;11.558;2023-06-19T13:25:07;2.78;;;2.15;;
30287;SDS011;17103;48.316;11.558;2023-06-19T13:27:33;2.40;;;2.20;;
30287;SDS011;17103;48.316;11.558;2023-06-19T13:30:00;6.93;;;2.55;;
30287;SDS011;17103;48.316;11.558;2023-06-19T13:32:26;3.10;;;2.70;;
30287;SDS011;17103;48.316;11.558;2023-06-19T13:34:53;2.92;;;2.63;;
30287;SDS011;17103;48.316;11.558;2023-06-19T13:37:20;2.78;;;2.45;;
30287;SDS011;17103;48.316;11.558;2023-06-19T13:39:45;2.53;;;2.33;;
30287;SDS011;17103;48.316;11.558;2023-06-19T13:42:11;2.25;;;2.05;;
30287;SDS011;17103;48.316;11.558;2023-06-19T13:44:37;2.10;;;2.00;;
30287;SDS011;17103;48.316;11.558;2023-06-19T13:47:03;3.60;;;2.17;;
30287;SDS011;17103;48.316;11.558;2023-06-19T13:49:29;2.38;;;2.17;;
30287;SDS011;17103;48.316;11.558;2023-06-19T13:51:55;2.63;;;2.03;;
30287;SDS011;17103;48.316;11.558;2023-06-19T13:54:21;2.28;;;2.05;;
30287;SDS011;17103;48.316;11.558;2023-06-19T13:56:47;2.50;;;2.00;;
30287;SDS011;17103;48.316;11.558;2023-06-19T13:59:14;2.08;;;1.85;;
30287;SDS011;17103;48.316;11.558;2023-06-19T14:01:40;2.35;;;2.10;;
30287;SDS011;17103;48.316;11.558;2023-06-19T14:04:06;2.30;;;2.10;;
30287;SDS011;17103;48.316;11.558;2023-06-19T14:06:33;2.38;;;2.17;;
30287;SDS011;17103;48.316;11.558;2023-06-19T14:08:59;2.40;;;2.20;;
30287;SDS011;17103;48.316;11.558;2023-06-19T14:11:26;2.83;;;2.20;;
30287;SDS011;17103;48.316;11.558;2023-06-19T14:13:51;2.72;;;2.50;;
30287;SDS011;17103;48.316;11.558;2023-06-19T14:16:17;2.90;;;2.60;;
30287;SDS011;17103;48.316;11.558;2023-06-19T14:18:43;2.13;;;1.92;;
30287;SDS011;17103;48.316;11.558;2023-06-19T14:21:08;1.73;;;1.60;;
30287;SDS011;17103;48.316;11.558;2023-06-19T14:23:34;1.80;;;1.70;;
30287;SDS011;17103;48.316;11.558;2023-06-19T14:26:05;2.35;;;2.13;;
30287;SDS011;17103;48.316;11.558;2023-06-19T14:28:30;3.33;;;2.08;;
30287;SDS011;17103;48.316;11.558;2023-06-19T14:30:56;2.63;;;2.05;;
30287;SDS011;17103;48.316;11.558;2023-06-19T14:33:23;2.25;;;2.05;;
30287;SDS011;17103;48.316;11.558;2023-06-19T14:35:48;2.83;;;2.53;;
30287;SDS011;17103;48.316;11.558;2023-06-19T14:38:14;2.60;;;2.28;;
30287;SDS011;17103;48.316;11.558;2023-06-19T14:40:40;3.67;;;2.33;;
30287;SDS011;17103;48.316;11.558;2023-06-19T14:43:06;2.20;;;1.95;;
30287;SDS011;17103;48.316;11.558;2023-06-19T14:45:34;2.67;;;2.15;;
30287;SDS011;17103;48.316;11.558;2023-06-19T14:48:00;2.17;;;1.98;;
30287;SDS011;17103;48.316;11.558;2023-06-19T14:50:27;3.25;;;2.60;;
30287;SDS011;17103;48.316;11.558;2023-06-19T14:52:52;2.28;;;2.08;;
30287;SDS011;17103;48.316;11.558;2023-06-19T14:55:18;2.45;;;2.25;;
30287;SDS011;17103;48.316;11.558;2023-06-19T14:57:44;2.08;;;1.98;;
30287;SDS011;17103;48.316;11.558;2023-06-19T15:00:10;2.40;;;2.20;;